Time,TemperatureF,DewpointF,PressureIn,WindDirection,WindDirectionDegrees,WindSpeedMPH,WindSpeedGustMPH,Humidity,HourlyPrecipIn,Conditions,Clouds,dailyrainin,SoftwareType,DateUTC
2013-08-13 00:14:00,57.0,51.9,29.96,West,270,0.0,-999.0,83,-99.99,,,0.00,Acu-Link.com,2013-08-13 05:14:00,
2013-08-13 00:29:00,56.5,51.4,29.96,West,270,0.0,-999.0,83,-99.99,,,0.00,Acu-Link.com,2013-08-13 05:29:00,
2013-08-13 00:45:00,55.9,50.8,29.97,SW,225,0.0,-999.0,83,-99.99,,,0.00,Acu-Link.com,2013-08-13 05:45:00,
2013-08-13 01:00:00,55.6,50.8,29.96,SW,225,0.0,-999.0,84,-99.99,,,0.00,Acu-Link.com,2013-08-13 06:00:00,
2013-08-13 01:15:00,55.0,50.3,29.97,West,270,0.0,-999.0,84,-99.99,,,0.00,Acu-Link.com,2013-08-13 06:15:00,
2013-08-13 01:30:00,54.7,50.0,29.97,WSW,247,0.0,-999.0,84,-99.99,,,0.00,Acu-Link.com,2013-08-13 06:30:00,
2013-08-13 01:46:00,54.3,49.6,29.98,WNW,292,0.0,-999.0,84,-99.99,,,0.00,Acu-Link.com,2013-08-13 06:46:00,
2013-08-13 02:01:00,53.8,49.1,29.98,WSW,247,0.0,-999.0,84,-99.99,,,0.00,Acu-Link.com,2013-08-13 07:01:00,
2013-08-13 02:16:00,53.4,49.0,29.99,SW,225,0.0,-999.0,85,-99.99,,,0.00,Acu-Link.com,2013-08-13 07:16:00,
2013-08-13 02:31:00,52.9,48.5,29.99,WSW,247,0.0,-999.0,85,-99.99,,,0.00,Acu-Link.com,2013-08-13 07:31:00,
2013-08-13 02:47:00,52.7,48.3,29.99,SW,225,0.0,-999.0,85,-99.99,,,0.00,Acu-Link.com,2013-08-13 07:47:00,
2013-08-13 03:02:00,52.5,48.4,30.00,WSW,247,0.0,-999.0,86,-99.99,,,0.00,Acu-Link.com,2013-08-13 08:02:00,
2013-08-13 03:17:00,52.3,48.2,29.99,West,270,0.0,-999.0,86,-99.99,,,0.00,Acu-Link.com,2013-08-13 08:17:00,
2013-08-13 03:32:00,52.2,48.1,29.99,WNW,292,0.0,-999.0,86,-99.99,,,0.00,Acu-Link.com,2013-08-13 08:32:00,
2013-08-13 03:47:00,52.2,48.1,30.00,West,270,0.0,-999.0,86,-99.99,,,0.00,Acu-Link.com,2013-08-13 08:47:00,
2013-08-13 04:02:00,51.6,47.6,29.99,West,270,0.0,-999.0,86,-99.99,,,0.00,Acu-Link.com,2013-08-13 09:02:00,
2013-08-13 04:18:00,51.1,47.4,30.00,West,270,0.0,-999.0,87,-99.99,,,0.00,Acu-Link.com,2013-08-13 09:18:00,
2013-08-13 04:33:00,50.4,46.7,30.00,West,270,0.0,-999.0,87,-99.99,,,0.00,Acu-Link.com,2013-08-13 09:33:00,
2013-08-13 04:48:00,50.0,46.3,30.00,West,270,0.0,-999.0,87,-99.99,,,0.00,Acu-Link.com,2013-08-13 09:48:00,
2013-08-13 05:03:00,49.8,46.1,30.00,West,270,0.0,-999.0,87,-99.99,,,0.00,Acu-Link.com,2013-08-13 10:03:00,
2013-08-13 05:18:00,49.5,45.8,30.00,West,270,0.0,-999.0,87,-99.99,,,0.00,Acu-Link.com,2013-08-13 10:18:00,
2013-08-13 05:33:00,49.3,45.6,30.00,West,270,0.0,-999.0,87,-99.99,,,0.00,Acu-Link.com,2013-08-13 10:33:00,
2013-08-13 05:48:00,49.1,45.4,30.00,West,270,0.0,-999.0,87,-99.99,,,0.00,Acu-Link.com,2013-08-13 10:48:00,
2013-08-13 06:04:00,48.9,45.5,30.00,West,270,0.0,-999.0,88,-99.99,,,0.00,Acu-Link.com,2013-08-13 11:04:00,
2013-08-13 06:19:00,48.7,45.3,30.00,WNW,292,0.0,-999.0,88,-99.99,,,0.00,Acu-Link.com,2013-08-13 11:19:00,
2013-08-13 06:34:00,48.7,45.3,30.02,West,270,0.0,-999.0,88,-99.99,,,0.00,Acu-Link.com,2013-08-13 11:34:00,
2013-08-13 06:49:00,48.6,45.2,30.02,WNW,292,0.0,-999.0,88,-99.99,,,0.00,Acu-Link.com,2013-08-13 11:49:00,
2013-08-13 07:04:00,48.7,45.3,30.02,NNW,337,0.0,-999.0,88,-99.99,,,0.00,Acu-Link.com,2013-08-13 12:04:00,
2013-08-13 07:20:00,49.3,45.9,30.03,West,270,0.0,-999.0,88,-99.99,,,0.00,Acu-Link.com,2013-08-13 12:20:00,
2013-08-13 07:35:00,50.0,46.6,30.04,West,270,0.0,-999.0,88,-99.99,,,0.00,Acu-Link.com,2013-08-13 12:35:00,
2013-08-13 07:50:00,51.1,47.7,30.04,WNW,292,0.0,-999.0,88,-99.99,,,0.00,Acu-Link.com,2013-08-13 12:50:00,
2013-08-13 08:05:00,52.0,48.9,30.04,WNW,292,0.0,-999.0,89,-99.99,,,0.00,Acu-Link.com,2013-08-13 13:05:00,
2013-08-13 08:20:00,53.6,50.4,30.05,SW,225,0.0,-999.0,89,-99.99,,,0.00,Acu-Link.com,2013-08-13 13:20:00,
2013-08-13 08:36:00,55.2,52.0,30.05,NNE,22,1.7,-999.0,89,-99.99,,,0.00,Acu-Link.com,2013-08-13 13:36:00,
2013-08-13 08:51:00,57.6,53.4,30.06,NNW,337,2.2,-999.0,86,-99.99,,,0.00,Acu-Link.com,2013-08-13 13:51:00,
2013-08-13 09:06:00,59.7,55.2,30.06,NNW,337,0.0,-999.0,85,-99.99,,,0.00,Acu-Link.com,2013-08-13 14:06:00,
2013-08-13 09:21:00,61.7,56.8,30.06,NNW,337,1.7,-999.0,84,-99.99,,,0.00,Acu-Link.com,2013-08-13 14:21:00,
2013-08-13 09:37:00,63.5,57.6,30.07,NNE,22,4.2,-999.0,81,-99.99,,,0.00,Acu-Link.com,2013-08-13 14:37:00,
2013-08-13 09:52:00,69.6,59.0,30.07,North,0,1.7,-999.0,69,-99.99,,,0.00,Acu-Link.com,2013-08-13 14:52:00,
2013-08-13 10:07:00,70.3,58.4,30.07,North,0,2.2,-999.0,66,-99.99,,,0.00,Acu-Link.com,2013-08-13 15:07:00,
2013-08-13 10:22:00,69.3,56.2,30.07,East,90,1.7,-999.0,63,-99.99,,,0.00,Acu-Link.com,2013-08-13 15:22:00,
2013-08-13 10:37:00,68.4,55.7,30.07,SE,135,1.7,-999.0,64,-99.99,,,0.00,Acu-Link.com,2013-08-13 15:37:00,
2013-08-13 10:53:00,67.8,54.7,30.07,SSW,202,0.0,-999.0,63,-99.99,,,0.00,Acu-Link.com,2013-08-13 15:53:00,
2013-08-13 11:08:00,68.4,52.6,30.06,NNW,337,0.0,-999.0,57,-99.99,,,0.00,Acu-Link.com,2013-08-13 16:08:00,
2013-08-13 11:23:00,69.3,53.4,30.06,East,90,0.0,-999.0,57,-99.99,,,0.00,Acu-Link.com,2013-08-13 16:23:00,
2013-08-13 11:38:00,70.9,52.9,30.06,NNE,22,3.2,-999.0,53,-99.99,,,0.00,Acu-Link.com,2013-08-13 16:38:00,
2013-08-13 11:53:00,71.6,54.1,30.07,North,0,1.1,-999.0,54,-99.99,,,0.00,Acu-Link.com,2013-08-13 16:53:00,
2013-08-13 12:24:00,71.8,52.1,30.07,North,0,0.0,-999.0,50,-99.99,,,0.00,Acu-Link.com,2013-08-13 17:24:00,
2013-08-13 12:39:00,73.0,51.6,30.07,North,0,1.7,-999.0,47,-99.99,,,0.00,Acu-Link.com,2013-08-13 17:39:00,
2013-08-13 12:54:00,72.9,52.0,30.06,NNE,22,0.0,-999.0,48,-99.99,,,0.00,Acu-Link.com,2013-08-13 17:54:00,
2013-08-13 13:09:00,70.7,51.7,30.06,East,90,0.0,-999.0,51,-99.99,,,0.00,Acu-Link.com,2013-08-13 18:09:00,
2013-08-13 13:25:00,74.3,51.6,30.06,NNW,337,1.7,-999.0,45,-99.99,,,0.00,Acu-Link.com,2013-08-13 18:25:00,
2013-08-13 13:40:00,73.8,48.6,30.06,NNE,22,1.7,-999.0,41,-99.99,,,0.00,Acu-Link.com,2013-08-13 18:40:00,
2013-08-13 13:55:00,76.6,52.4,30.05,WNW,292,1.1,-999.0,43,-99.99,,,0.00,Acu-Link.com,2013-08-13 18:55:00,
2013-08-13 14:10:00,74.7,49.4,30.06,NE,45,1.1,-999.0,41,-99.99,,,0.00,Acu-Link.com,2013-08-13 19:10:00,
2013-08-13 14:26:00,74.8,50.2,30.05,East,90,1.7,-999.0,42,-99.99,,,0.00,Acu-Link.com,2013-08-13 19:26:00,
2013-08-13 14:41:00,73.8,51.1,30.05,NW,315,1.7,-999.0,45,-99.99,,,0.00,Acu-Link.com,2013-08-13 19:41:00,
2013-08-13 14:56:00,73.6,49.1,30.04,ESE,112,1.7,-999.0,42,-99.99,,,0.00,Acu-Link.com,2013-08-13 19:56:00,
2013-08-13 15:11:00,74.1,50.2,30.04,WNW,292,0.0,-999.0,43,-99.99,,,0.00,Acu-Link.com,2013-08-13 20:11:00,
2013-08-13 15:26:00,76.6,48.4,30.04,South,180,0.0,-999.0,37,-99.99,,,0.00,Acu-Link.com,2013-08-13 20:26:00,
2013-08-13 15:42:00,78.3,50.6,30.04,North,0,1.1,-999.0,38,-99.99,,,0.00,Acu-Link.com,2013-08-13 20:42:00,
2013-08-13 15:57:00,76.1,51.3,30.03,South,180,2.2,-999.0,42,-99.99,,,0.00,Acu-Link.com,2013-08-13 20:57:00,
2013-08-13 16:12:00,75.0,50.3,30.04,ENE,67,0.0,-999.0,42,-99.99,,,0.00,Acu-Link.com,2013-08-13 21:12:00,
2013-08-13 16:27:00,74.8,50.2,30.03,West,270,2.7,-999.0,42,-99.99,,,0.00,Acu-Link.com,2013-08-13 21:27:00,
2013-08-13 16:42:00,74.1,49.5,30.02,North,0,1.1,-999.0,42,-99.99,,,0.00,Acu-Link.com,2013-08-13 21:42:00,
2013-08-13 16:58:00,75.2,49.9,30.03,NE,45,0.0,-999.0,41,-99.99,,,0.00,Acu-Link.com,2013-08-13 21:58:00,
2013-08-13 17:13:00,75.0,49.7,30.02,West,270,2.2,-999.0,41,-99.99,,,0.00,Acu-Link.com,2013-08-13 22:13:00,
2013-08-13 17:28:00,74.8,49.5,30.02,West,270,0.0,-999.0,41,-99.99,,,0.00,Acu-Link.com,2013-08-13 22:28:00,
2013-08-13 17:43:00,74.1,48.2,30.01,SW,225,1.1,-999.0,40,-99.99,,,0.00,Acu-Link.com,2013-08-13 22:43:00,
2013-08-13 17:58:00,73.6,48.4,30.01,North,0,3.7,-999.0,41,-99.99,,,0.00,Acu-Link.com,2013-08-13 22:58:00,
2013-08-13 18:14:00,72.9,49.1,30.01,ESE,112,1.1,-999.0,43,-99.99,,,0.00,Acu-Link.com,2013-08-13 23:14:00,
2013-08-13 18:29:00,72.5,49.3,30.01,West,270,1.7,-999.0,44,-99.99,,,0.00,Acu-Link.com,2013-08-13 23:29:00,
2013-08-13 18:44:00,72.0,50.1,30.01,NNE,22,0.0,-999.0,46,-99.99,,,0.00,Acu-Link.com,2013-08-13 23:44:00,
2013-08-13 18:59:00,71.6,50.9,30.01,NNE,22,0.0,-999.0,48,-99.99,,,0.00,Acu-Link.com,2013-08-13 23:59:00,
2013-08-13 19:14:00,70.5,49.9,30.00,WNW,292,0.0,-999.0,48,-99.99,,,0.00,Acu-Link.com,2013-08-14 00:14:00,
2013-08-13 19:30:00,69.3,50.9,30.01,NW,315,0.0,-999.0,52,-99.99,,,0.00,Acu-Link.com,2013-08-14 00:30:00,
2013-08-13 19:45:00,68.0,51.7,30.00,NW,315,0.0,-999.0,56,-99.99,,,0.00,Acu-Link.com,2013-08-14 00:45:00,
2013-08-13 20:00:00,66.7,52.4,30.00,NW,315,0.0,-999.0,60,-99.99,,,0.00,Acu-Link.com,2013-08-14 01:00:00,
2013-08-13 20:16:00,64.8,53.6,30.01,WNW,292,0.0,-999.0,67,-99.99,,,0.00,Acu-Link.com,2013-08-14 01:16:00,
2013-08-13 20:31:00,63.5,52.3,30.01,WNW,292,0.0,-999.0,67,-99.99,,,0.00,Acu-Link.com,2013-08-14 01:31:00,
2013-08-13 20:46:00,62.4,51.3,30.01,WNW,292,0.0,-999.0,67,-99.99,,,0.00,Acu-Link.com,2013-08-14 01:46:00,
2013-08-13 21:01:00,61.2,50.9,30.02,WNW,292,0.0,-999.0,69,-99.99,,,0.00,Acu-Link.com,2013-08-14 02:01:00,
2013-08-13 21:16:00,60.6,50.4,30.02,WNW,292,0.0,-999.0,69,-99.99,,,0.00,Acu-Link.com,2013-08-14 02:16:00,
2013-08-13 21:32:00,59.7,50.7,30.01,WNW,292,0.0,-999.0,72,-99.99,,,0.00,Acu-Link.com,2013-08-14 02:32:00,
2013-08-13 21:47:00,59.2,50.5,30.02,WNW,292,0.0,-999.0,73,-99.99,,,0.00,Acu-Link.com,2013-08-14 02:47:00,
2013-08-13 22:02:00,58.5,50.2,30.02,WNW,292,0.0,-999.0,74,-99.99,,,0.00,Acu-Link.com,2013-08-14 03:02:00,
2013-08-13 22:17:00,58.1,49.9,30.02,WNW,292,0.0,-999.0,74,-99.99,,,0.00,Acu-Link.com,2013-08-14 03:17:00,
2013-08-13 22:33:00,57.7,50.2,30.03,WNW,292,0.0,-999.0,76,-99.99,,,0.00,Acu-Link.com,2013-08-14 03:33:00,
2013-08-13 22:48:00,57.4,49.9,30.03,East,90,0.0,-999.0,76,-99.99,,,0.00,Acu-Link.com,2013-08-14 03:48:00,
2013-08-13 23:03:00,57.2,50.1,30.03,East,90,0.0,-999.0,77,-99.99,,,0.00,Acu-Link.com,2013-08-14 04:03:00,
2013-08-13 23:18:00,56.7,50.9,30.03,WSW,247,0.0,-999.0,81,-99.99,,,0.00,Acu-Link.com,2013-08-14 04:18:00,
2013-08-13 23:33:00,56.1,50.3,30.04,West,270,0.0,-999.0,81,-99.99,,,0.00,Acu-Link.com,2013-08-14 04:33:00,
2013-08-13 23:49:00,56.1,50.3,30.03,East,90,0.0,-999.0,81,-99.99,,,0.00,Acu-Link.com,2013-08-14 04:49:00,